createdAt,value
2023-01-25T00:01:54.526Z,86.09
2023-01-25T00:06:57.164Z,86.26
2023-01-25T00:12:01.163Z,86.24
2023-01-25T00:17:02.893Z,86.07
2023-01-25T00:22:05.312Z,86.48
2023-01-25T00:27:06.998Z,86.63
2023-01-25T00:32:15.098Z,86.63
2023-01-25T00:37:44.219Z,86.50
2023-01-25T00:42:46.258Z,86.55
2023-01-25T00:47:48.011Z,86.49
2023-01-25T00:52:49.771Z,86.65
2023-01-25T00:57:51.703Z,86.55
2023-01-25T01:02:53.756Z,86.84
2023-01-25T01:07:56.201Z,86.92
2023-01-25T01:12:57.929Z,86.69
2023-01-25T01:17:59.558Z,86.71
2023-01-25T01:23:02.305Z,86.41
2023-01-25T01:28:04.080Z,86.87
2023-01-25T01:33:06.319Z,86.59
2023-01-25T01:38:08.090Z,86.44
2023-01-25T01:43:18.235Z,86.14
2023-01-25T01:48:45.130Z,86.34
2023-01-25T01:54:33.004Z,86.10
2023-01-25T01:59:48.812Z,85.92
2023-01-25T02:04:53.369Z,85.45
2023-01-25T02:09:55.169Z,85.69
2023-01-25T02:14:57.102Z,86.02
2023-01-25T02:20:13.413Z,85.81
2023-01-25T02:25:17.561Z,86.58
2023-01-25T02:30:19.328Z,86.57
2023-01-25T02:35:24.010Z,86.65
2023-01-25T02:40:25.874Z,86.22
2023-01-25T02:45:30.154Z,86.47
2023-01-25T02:50:32.091Z,86.22
2023-01-25T02:55:33.842Z,86.33
2023-01-25T03:00:35.696Z,85.88
2023-01-25T03:05:38.607Z,85.81
2023-01-25T03:10:40.640Z,85.91
2023-01-25T03:15:42.697Z,85.96
2023-01-25T03:20:44.847Z,85.73
2023-01-25T03:25:47.051Z,85.99
2023-01-25T03:30:53.813Z,85.80
2023-01-25T03:35:56.424Z,86.16
2023-01-25T03:40:58.820Z,85.85
2023-01-25T03:46:02.300Z,86.02
2023-01-25T03:51:04.926Z,85.95
2023-01-25T03:56:09.582Z,85.86
2023-01-25T04:01:12.056Z,86.14
2023-01-25T04:06:14.204Z,86.30
2023-01-25T04:11:16.419Z,86.45
2023-01-25T04:16:19.945Z,86.25
2023-01-25T04:21:40.633Z,86.14
2023-01-25T04:26:42.817Z,86.60
2023-01-25T04:31:44.876Z,86.49
2023-01-25T04:36:47.336Z,86.63
2023-01-25T04:41:49.531Z,86.77
2023-01-25T04:46:51.915Z,86.92
2023-01-25T04:51:54.116Z,86.47
2023-01-25T04:56:56.271Z,86.48
2023-01-25T05:01:58.327Z,86.66
2023-01-25T05:07:00.459Z,86.19
2023-01-25T05:12:02.509Z,86.02
2023-01-25T05:17:16.822Z,86.09
2023-01-25T05:22:21.148Z,86.10
2023-01-25T05:27:26.283Z,85.99
2023-01-25T05:32:28.063Z,85.94
2023-01-25T05:37:31.013Z,85.73
2023-01-25T05:42:36.891Z,85.83
2023-01-25T05:47:39.146Z,85.59
2023-01-25T05:52:41.550Z,85.67
2023-01-25T05:57:43.529Z,85.63
2023-01-25T06:02:45.476Z,85.68
2023-01-25T06:07:51.506Z,85.80
2023-01-25T06:12:59.385Z,85.73
2023-01-25T06:18:01.545Z,85.54
2023-01-25T06:23:14.289Z,85.57
2023-01-25T06:28:16.152Z,85.84
2023-01-25T06:33:17.979Z,85.80
2023-01-25T06:38:20.084Z,85.33
2023-01-25T06:43:21.891Z,85.09
2023-01-25T06:48:23.703Z,85.09
2023-01-25T06:53:30.282Z,84.72
2023-01-25T06:58:33.026Z,84.91
2023-01-25T07:03:35.114Z,84.45
2023-01-25T07:08:37.234Z,84.82
2023-01-25T07:13:40.583Z,84.82
2023-01-25T07:18:42.568Z,84.67
2023-01-25T07:23:44.905Z,84.82
2023-01-25T07:28:48.095Z,84.57
2023-01-25T07:33:57.566Z,84.76
2023-01-25T07:39:01.880Z,84.41
2023-01-25T07:44:03.913Z,84.18
2023-01-25T07:49:19.629Z,84.29
2023-01-25T07:54:21.282Z,84.34
2023-01-25T07:59:24.438Z,84.17
2023-01-25T08:04:26.364Z,84.55
2023-01-25T08:09:28.508Z,84.16
2023-01-25T08:14:30.304Z,84.13
2023-01-25T08:19:32.066Z,83.73
2023-01-25T08:24:34.026Z,83.76
2023-01-25T08:29:35.988Z,83.64
2023-01-25T08:34:37.743Z,84.04
2023-01-25T08:39:39.490Z,84.27
2023-01-25T08:44:41.256Z,84.00
2023-01-25T08:49:42.953Z,83.73
2023-01-25T08:54:44.819Z,84.24
2023-01-25T08:59:47.826Z,84.23
2023-01-25T09:04:49.623Z,83.70
2023-01-25T09:09:51.392Z,83.79
2023-01-25T09:14:53.241Z,83.72
2023-01-25T09:19:54.950Z,83.60
2023-01-25T09:24:56.629Z,84.02
2023-01-25T09:30:01.774Z,83.77
2023-01-25T09:35:05.713Z,83.73
2023-01-25T09:40:30.816Z,83.81
2023-01-25T09:45:36.503Z,83.82
2023-01-25T09:50:58.606Z,83.62
2023-01-25T09:56:25.583Z,83.77
2023-01-25T10:01:39.318Z,82.97
2023-01-25T10:06:55.145Z,82.95
2023-01-25T10:12:15.436Z,82.96
2023-01-25T10:17:36.982Z,83.13
2023-01-25T10:22:53.074Z,83.12
2023-01-25T10:28:08.877Z,82.23
2023-01-25T10:33:15.183Z,82.23
2023-01-25T10:38:25.387Z,82.35
2023-01-25T10:43:27.142Z,82.34
2023-01-25T10:48:36.710Z,82.38
2023-01-25T10:53:44.235Z,82.01
2023-01-25T10:58:49.192Z,81.75
2023-01-25T11:03:51.385Z,81.78
2023-01-25T11:08:53.209Z,81.42
2023-01-25T11:13:55.402Z,80.46
2023-01-25T11:18:59.187Z,80.30
2023-01-25T11:24:06.805Z,79.73
2023-01-25T11:29:23.357Z,79.20
2023-01-25T11:34:28.045Z,79.67
2023-01-25T11:39:44.841Z,79.72
2023-01-25T11:45:08.751Z,79.56
2023-01-25T11:50:22.554Z,79.56
2023-01-25T11:55:56.315Z,78.65
2023-01-25T12:01:19.291Z,78.14
2023-01-25T12:06:27.083Z,78.74
2023-01-25T12:11:52.895Z,78.93
2023-01-25T12:17:08.786Z,78.48
2023-01-25T12:22:22.511Z,78.03
2023-01-25T12:27:36.286Z,76.03
2023-01-25T12:32:45.523Z,76.73
2023-01-25T12:37:49.418Z,76.20
2023-01-25T12:42:58.962Z,77.13
2023-01-25T12:48:05.936Z,76.73
2023-01-25T12:53:34.345Z,76.39
2023-01-25T12:58:52.476Z,77.02
2023-01-25T13:04:18.252Z,76.78
2023-01-25T13:09:44.469Z,76.68
2023-01-25T13:14:46.158Z,76.88
2023-01-25T13:19:48.497Z,77.06
2023-01-25T13:25:02.468Z,77.33
2023-01-25T13:30:16.269Z,76.84
2023-01-25T13:35:30.071Z,76.43
2023-01-25T13:40:33.329Z,76.35
2023-01-25T13:45:38.606Z,76.48
2023-01-25T13:50:47.911Z,75.54
2023-01-25T13:55:54.739Z,75.98
2023-01-25T14:01:08.405Z,75.70
2023-01-25T14:06:20.591Z,76.02
2023-01-25T14:11:29.030Z,75.63
2023-01-25T14:16:32.394Z,75.83
2023-01-25T14:21:34.376Z,75.16
2023-01-25T14:26:39.246Z,74.70
2023-01-25T14:31:41.042Z,75.08
2023-01-25T14:36:43.094Z,75.70
2023-01-25T14:42:00.049Z,76.03
2023-01-25T14:47:31.044Z,76.44
2023-01-25T14:52:32.835Z,76.48
2023-01-25T14:57:37.670Z,76.66
2023-01-25T15:02:45.905Z,76.61
2023-01-25T15:07:53.597Z,76.52
2023-01-25T15:13:15.573Z,76.85
2023-01-25T15:18:40.705Z,76.87
2023-01-25T15:23:44.540Z,77.37
2023-01-25T15:28:46.697Z,77.67
2023-01-25T15:33:49.021Z,77.63
2023-01-25T15:38:50.772Z,77.82
2023-01-25T15:43:53.137Z,77.73
2023-01-25T15:48:56.445Z,77.96
2023-01-25T15:53:59.098Z,77.72
2023-01-25T15:59:05.401Z,78.24
2023-01-25T16:04:09.883Z,78.58
2023-01-25T16:09:16.309Z,78.47
2023-01-25T16:14:18.989Z,78.53
2023-01-25T16:19:23.280Z,78.61
2023-01-25T16:24:25.043Z,78.51
2023-01-25T16:29:27.488Z,78.67
2023-01-25T16:34:29.185Z,78.44
2023-01-25T16:39:33.861Z,78.64
2023-01-25T16:44:35.578Z,78.74
2023-01-25T16:49:37.502Z,79.07
2023-01-25T16:54:39.325Z,79.16
2023-01-25T16:59:41.187Z,78.73
2023-01-25T17:04:42.894Z,78.76
2023-01-25T17:09:44.705Z,78.33
2023-01-25T17:14:46.413Z,77.95
2023-01-25T17:19:49.877Z,77.99
2023-01-25T17:24:51.574Z,78.13
2023-01-25T17:29:53.285Z,77.66
2023-01-25T17:34:59.074Z,77.45
2023-01-25T17:40:01.095Z,77.61
2023-01-25T17:45:02.959Z,77.56
2023-01-25T17:50:05.219Z,77.28
2023-01-25T17:55:07.511Z,76.93
2023-01-25T18:00:12.300Z,77.38
2023-01-25T18:05:17.395Z,77.40
2023-01-25T18:10:19.272Z,77.59
2023-01-25T18:15:22.429Z,77.50
2023-01-25T18:20:24.226Z,77.75
2023-01-25T18:25:34.635Z,77.75
2023-01-25T18:30:41.244Z,77.63
2023-01-25T18:35:43.970Z,77.87
2023-01-25T18:40:45.744Z,78.27
2023-01-25T18:45:55.846Z,77.74
2023-01-25T18:51:06.527Z,77.24
2023-01-25T18:56:20.442Z,77.33
2023-01-25T19:01:22.925Z,77.50
2023-01-25T19:06:24.770Z,77.74
2023-01-25T19:11:26.738Z,77.12
2023-01-25T19:16:28.753Z,77.22
2023-01-25T19:21:30.520Z,76.87
2023-01-25T19:26:32.236Z,76.96
2023-01-25T19:31:36.741Z,76.78
2023-01-25T19:36:43.679Z,76.11
2023-01-25T19:41:45.420Z,76.42
2023-01-25T19:46:47.741Z,76.43
2023-01-25T19:51:53.152Z,76.23
2023-01-25T19:56:56.102Z,76.06
2023-01-25T20:01:57.862Z,76.55
2023-01-25T20:06:59.552Z,76.59
2023-01-25T20:12:03.015Z,76.70
2023-01-25T20:17:06.466Z,76.47
2023-01-25T20:22:08.622Z,76.06
2023-01-25T20:27:10.331Z,76.06
2023-01-25T20:32:26.684Z,76.12
2023-01-25T20:37:33.447Z,75.97
2023-01-25T20:42:35.136Z,75.71
2023-01-25T20:47:36.870Z,76.12
2023-01-25T20:52:38.542Z,76.09
2023-01-25T20:57:40.737Z,75.61
2023-01-25T21:02:42.398Z,75.14
2023-01-25T21:07:44.110Z,74.76
2023-01-25T21:12:45.809Z,75.79
2023-01-25T21:17:53.722Z,76.09
2023-01-25T21:22:55.397Z,75.93
2023-01-25T21:27:57.080Z,76.28
2023-01-25T21:32:58.809Z,76.45
2023-01-25T21:38:00.579Z,76.22
2023-01-25T21:43:02.267Z,76.16
2023-01-25T21:48:04.104Z,75.94
2023-01-25T21:53:05.987Z,76.40
2023-01-25T21:58:07.785Z,76.28
2023-01-25T22:03:09.472Z,76.22
2023-01-25T22:08:11.243Z,76.28
2023-01-25T22:13:20.176Z,76.59
2023-01-25T22:18:21.895Z,76.85
2023-01-25T22:23:23.595Z,77.41
2023-01-25T22:28:26.999Z,77.15
2023-01-25T22:33:28.709Z,77.43
2023-01-25T22:38:30.382Z,77.67
2023-01-25T22:43:35.694Z,77.62
2023-01-25T22:48:37.531Z,77.89
2023-01-25T22:53:39.232Z,77.92
2023-01-25T22:58:42.675Z,77.50
2023-01-25T23:03:44.856Z,77.34
2023-01-25T23:08:47.971Z,77.56
2023-01-25T23:14:08.984Z,78.20
2023-01-25T23:19:10.658Z,78.25
2023-01-25T23:24:13.040Z,78.28
2023-01-25T23:29:14.927Z,78.15
2023-01-25T23:34:16.633Z,78.16
2023-01-25T23:39:18.461Z,77.98
2023-01-25T23:44:20.146Z,77.68
2023-01-25T23:49:21.864Z,77.61
2023-01-25T23:54:23.770Z,77.70
2023-01-25T23:59:25.484Z,77.79
